Time;durP1;ratioP1;P1;durP2;ratioP2;P2;SDS_P1;SDS_P2;PMS_P1;PMS_P2;Temp;Humidity;BMP_temperature;BMP_pressure;BME280_temperature;BME280_humidity;BME280_pressure;Samples;Min_cycle;Max_cycle;Signal;HPM_P1;HPM_P2
2024/02/02 00:00:24;;;;;;;4.35;1.30;;;22.50;42.80;;;;;;5133636;27;20027;-32
2024/02/02 00:02:50;;;;;;;1.75;1.25;;;22.60;42.80;;;;;;5131720;27;20035;-33
2024/02/02 00:05:16;;;;;;;2.42;1.20;;;22.60;42.80;;;;;;5133491;27;20090;-34
2024/02/02 00:07:43;;;;;;;6.22;1.00;;;22.60;42.80;;;;;;5134140;27;20069;-30
2024/02/02 00:10:09;;;;;;;1.52;1.10;;;22.60;42.80;;;;;;5112387;27;20036;-32
2024/02/02 00:12:35;;;;;;;5.40;1.50;;;22.50;42.80;;;;;;5129846;27;20031;-35
2024/02/02 00:15:03;;;;;;;1.83;1.10;;;22.50;43.00;;;;;;5131333;27;20034;-32
2024/02/02 00:17:30;;;;;;;;;;;22.50;43.00;;;;;;5131408;27;20019;-32
2024/02/02 00:19:56;;;;;;;2.03;1.17;;;22.50;43.00;;;;;;5130495;27;20032;-36
2024/02/02 00:22:24;;;;;;;3.35;1.00;;;22.50;43.10;;;;;;5126160;27;20028;-35
2024/02/02 00:24:51;;;;;;;1.63;1.10;;;22.50;43.10;;;;;;5125488;27;20087;-34
2024/02/02 00:27:18;;;;;;;1.98;1.15;;;22.50;43.00;;;;;;5132355;27;20031;-34
2024/02/02 00:29:46;;;;;;;1.50;1.10;;;22.50;43.00;;;;;;5131425;27;20650;-33
2024/02/02 00:32:15;;;;;;;1.80;0.95;;;22.50;43.10;;;;;;5129432;27;20796;-36
2024/02/02 00:34:41;;;;;;;1.05;0.95;;;22.40;43.00;;;;;;5122914;27;20032;-30
2024/02/02 00:37:07;;;;;;;1.05;0.82;;;22.40;43.10;;;;;;5125599;27;20031;-36
2024/02/02 00:39:34;;;;;;;1.30;0.98;;;22.40;43.10;;;;;;5125996;27;20031;-33
2024/02/02 00:42:00;;;;;;;1.17;1.08;;;22.40;43.20;;;;;;5110483;27;20027;-33
2024/02/02 00:44:27;;;;;;;1.80;0.80;;;22.50;43.20;;;;;;5127399;27;20043;-33
2024/02/02 00:46:53;;;;;;;2.35;0.80;;;22.40;43.10;;;;;;5127935;27;20027;-36
2024/02/02 00:49:24;;;;;;;1.02;0.95;;;22.40;43.20;;;;;;5130766;27;20088;-32
2024/02/02 00:51:51;;;;;;;1.00;0.90;;;22.40;43.20;;;;;;5125052;27;20031;-33
2024/02/02 00:54:17;;;;;;;1.25;0.90;;;22.40;43.20;;;;;;5112220;27;20665;-33
2024/02/02 00:56:43;;;;;;;1.20;1.10;;;22.30;43.20;;;;;;5130214;27;20056;-35
2024/02/02 00:59:09;;;;;;;1.60;1.00;;;22.30;43.30;;;;;;5135962;27;20770;-37
2024/02/02 01:01:35;;;;;;;1.30;1.08;;;22.40;43.30;;;;;;5128373;27;20036;-34
2024/02/02 01:04:02;;;;;;;0.90;0.73;;;22.40;43.20;;;;;;5132825;27;20383;-36
2024/02/02 01:06:28;;;;;;;0.90;0.85;;;22.40;43.20;;;;;;5116057;27;20113;-34
2024/02/02 01:08:54;;;;;;;1.20;0.93;;;22.30;43.20;;;;;;5134582;27;20058;-35
2024/02/02 01:11:22;;;;;;;1.98;0.80;;;22.30;43.30;;;;;;5135443;27;20053;-36
2024/02/02 01:13:48;;;;;;;0.70;0.70;;;22.30;43.30;;;;;;5140670;27;20023;-38
2024/02/02 01:16:14;;;;;;;1.10;1.00;;;22.30;43.40;;;;;;5141286;27;20031;-34
2024/02/02 01:18:40;;;;;;;0.88;0.70;;;22.30;43.40;;;;;;5131743;27;20031;-35
2024/02/02 01:21:06;;;;;;;1.02;0.90;;;22.30;43.30;;;;;;5131028;27;20047;-33
2024/02/02 01:23:33;;;;;;;1.63;0.90;;;22.30;43.30;;;;;;5141796;27;20041;-34
2024/02/02 01:25:59;;;;;;;1.30;0.88;;;22.30;43.30;;;;;;5140504;27;20023;-34
2024/02/02 01:28:25;;;;;;;1.00;0.80;;;22.30;43.30;;;;;;5132234;27;20035;-32
2024/02/02 01:30:51;;;;;;;1.00;0.70;;;22.20;43.30;;;;;;5129077;27;20049;-30
2024/02/02 01:33:17;;;;;;;0.80;0.60;;;22.20;43.30;;;;;;5131336;27;20023;-34
2024/02/02 01:35:43;;;;;;;0.65;0.65;;;22.30;43.30;;;;;;5131736;27;20430;-34
2024/02/02 01:38:10;;;;;;;1.60;0.77;;;22.30;43.30;;;;;;5131770;27;20031;-34
2024/02/02 01:40:36;;;;;;;1.42;0.90;;;22.30;43.30;;;;;;5129416;27;20556;-36
2024/02/02 01:43:03;;;;;;;1.00;0.73;;;22.20;43.20;;;;;;5131926;27;20043;-36
2024/02/02 01:45:30;;;;;;;2.22;0.70;;;22.20;43.20;;;;;;5130576;27;20038;-33
2024/02/02 01:47:56;;;;;;;1.00;0.95;;;22.20;43.30;;;;;;5132164;27;20046;-34
2024/02/02 01:50:22;;;;;;;2.85;0.90;;;22.20;43.40;;;;;;5114182;27;20110;-33
2024/02/02 01:52:49;;;;;;;1.07;0.70;;;22.30;43.40;;;;;;5129835;27;20061;-35
2024/02/02 01:55:15;;;;;;;1.67;0.75;;;22.30;43.30;;;;;;5134521;27;20053;-31
2024/02/02 01:57:41;;;;;;;1.77;0.80;;;22.30;43.30;;;;;;5133099;27;20015;-37
2024/02/02 02:00:08;;;;;;;2.58;0.80;;;22.20;43.20;;;;;;5132389;27;20074;-34
2024/02/02 02:02:34;;;;;;;0.85;0.80;;;22.20;43.30;;;;;;5133879;28;20024;-35
2024/02/02 02:05:20;;;;;;;0.73;0.73;;;22.20;43.40;;;;;;5051624;28;20056;-31
2024/02/02 02:07:46;;;;;;;0.95;0.80;;;22.20;43.40;;;;;;5051500;28;20037;-35
2024/02/02 02:10:15;;;;;;;1.10;0.60;;;22.20;43.40;;;;;;5050533;28;20056;-34
2024/02/02 02:12:41;;;;;;;1.50;0.95;;;22.20;43.30;;;;;;5051939;28;20040;-36
2024/02/02 02:15:10;;;;;;;0.90;0.73;;;22.20;43.30;;;;;;5054264;28;20033;-34
2024/02/02 02:17:37;;;;;;;1.15;0.75;;;22.10;43.30;;;;;;5052400;28;20110;-32
2024/02/02 02:20:09;;;;;;;0.73;0.50;;;22.10;43.30;;;;;;5059224;28;20064;-32
2024/02/02 02:22:35;;;;;;;0.52;0.45;;;22.10;43.40;;;;;;5053374;28;20048;-31
2024/02/02 02:25:02;;;;;;;1.15;0.70;;;22.10;43.40;;;;;;5051500;28;20032;-34
2024/02/02 02:27:28;;;;;;;1.00;0.70;;;22.20;43.40;;;;;;5053231;28;20086;-33
2024/02/02 02:29:54;;;;;;;2.53;0.70;;;22.20;43.40;;;;;;5055729;28;20045;-37
2024/02/02 02:32:20;;;;;;;1.60;0.82;;;22.20;43.40;;;;;;5052839;28;20044;-31
2024/02/02 02:34:46;;;;;;;0.95;0.77;;;22.10;43.30;;;;;;5052636;28;20112;-34
2024/02/02 02:37:12;;;;;;;1.33;0.70;;;22.10;43.40;;;;;;5054705;28;20033;-35
2024/02/02 02:39:38;;;;;;;0.60;0.60;;;22.10;43.40;;;;;;5054993;28;20097;-36
2024/02/02 02:42:05;;;;;;;0.70;0.60;;;22.10;43.40;;;;;;5081381;27;20056;-33
2024/02/02 02:44:31;;;;;;;0.85;0.70;;;22.10;43.30;;;;;;5137620;27;20062;-32
2024/02/02 02:46:58;;;;;;;0.85;0.70;;;22.10;43.30;;;;;;5135404;27;20056;-33
2024/02/02 02:49:24;;;;;;;0.98;0.70;;;22.10;43.30;;;;;;5136516;27;20093;-31
2024/02/02 02:51:50;;;;;;;0.95;0.70;;;22.10;43.40;;;;;;5137256;27;20030;-37
2024/02/02 02:54:16;;;;;;;0.57;0.50;;;22.00;43.30;;;;;;5141333;27;20071;-31
2024/02/02 02:56:43;;;;;;;1.60;0.50;;;22.10;43.40;;;;;;5138323;27;20058;-36
2024/02/02 02:59:09;;;;;;;2.73;0.70;;;22.10;43.30;;;;;;5132884;27;20024;-36
2024/02/02 03:01:35;;;;;;;0.73;0.60;;;22.10;43.30;;;;;;5138930;27;20039;-32
2024/02/02 03:04:01;;;;;;;0.60;0.60;;;22.10;43.30;;;;;;5143326;27;20134;-36
2024/02/02 03:06:28;;;;;;;0.90;0.60;;;22.10;43.20;;;;;;5132505;27;20671;-35
2024/02/02 03:08:54;;;;;;;1.30;0.60;;;22.00;43.10;;;;;;5128313;27;20068;-33
2024/02/02 03:11:20;;;;;;;0.80;0.60;;;22.00;43.10;;;;;;5129984;27;20023;-32
2024/02/02 03:13:46;;;;;;;0.60;0.60;;;22.00;43.20;;;;;;5136004;27;20031;-31
2024/02/02 03:16:12;;;;;;;0.52;0.50;;;22.10;43.20;;;;;;5133362;27;20024;-32
2024/02/02 03:18:39;;;;;;;0.50;0.50;;;22.10;43.20;;;;;;5132328;27;20028;-35
2024/02/02 03:21:05;;;;;;;0.82;0.70;;;22.00;43.20;;;;;;5121092;27;20102;-33
2024/02/02 03:23:31;;;;;;;1.13;0.73;;;22.00;43.30;;;;;;5134618;27;20038;-32
2024/02/02 03:25:57;;;;;;;0.88;0.60;;;22.00;43.40;;;;;;5132244;27;20098;-32
2024/02/02 03:28:23;;;;;;;1.10;0.65;;;22.00;43.40;;;;;;5128561;27;20051;-32
2024/02/02 03:30:49;;;;;;;0.85;0.70;;;22.00;43.40;;;;;;5116415;27;20035;-33
2024/02/02 03:33:16;;;;;;;0.80;0.65;;;22.00;43.30;;;;;;5123896;27;20023;-34
2024/02/02 03:35:42;;;;;;;0.80;0.70;;;22.00;43.30;;;;;;5119538;27;20080;-30
2024/02/02 03:38:08;;;;;;;1.02;0.70;;;22.00;43.40;;;;;;5112673;27;20031;-32
2024/02/02 03:40:34;;;;;;;0.75;0.60;;;21.90;43.30;;;;;;5122880;27;20045;-32
2024/02/02 03:43:00;;;;;;;0.90;0.70;;;21.90;43.30;;;;;;5128760;27;20045;-33
2024/02/02 03:45:27;;;;;;;1.00;0.70;;;22.00;43.40;;;;;;5124379;27;20027;-32
2024/02/02 03:47:53;;;;;;;1.02;0.70;;;22.00;43.40;;;;;;5130545;27;20050;-33
2024/02/02 03:50:19;;;;;;;0.95;0.63;;;22.00;43.30;;;;;;5135278;27;20033;-30
2024/02/02 03:52:45;;;;;;;0.70;0.63;;;22.00;43.30;;;;;;5134845;27;20058;-35
2024/02/02 03:55:11;;;;;;;3.55;0.70;;;21.90;43.30;;;;;;5138753;27;20471;-34
2024/02/02 03:57:37;;;;;;;1.00;0.80;;;21.90;43.50;;;;;;5134399;27;20391;-30
2024/02/02 04:00:09;;;;;;;0.73;0.50;;;21.90;43.80;;;;;;5133752;27;20042;-34
2024/02/02 04:02:36;;;;;;;0.73;0.57;;;22.00;43.60;;;;;;5133295;27;20104;-35
2024/02/02 04:05:02;;;;;;;0.80;0.63;;;22.00;43.50;;;;;;5137165;27;20039;-34
2024/02/02 04:07:29;;;;;;;4.22;0.60;;;22.00;43.50;;;;;;5125261;27;20040;-33
2024/02/02 04:09:55;;;;;;;0.90;0.70;;;21.90;43.50;;;;;;5140460;27;20045;-36
2024/02/02 04:12:21;;;;;;;0.88;0.68;;;21.90;43.60;;;;;;5127968;27;20031;-34
2024/02/02 04:14:47;;;;;;;1.08;0.60;;;21.90;43.60;;;;;;5130212;27;20028;-32
2024/02/02 04:17:13;;;;;;;1.10;0.60;;;21.90;43.50;;;;;;5127578;27;20130;-31
2024/02/02 04:19:39;;;;;;;0.85;0.60;;;22.00;43.50;;;;;;5131497;27;20027;-35
2024/02/02 04:22:06;;;;;;;0.77;0.60;;;22.00;43.40;;;;;;5132306;27;20027;-33
2024/02/02 04:24:32;;;;;;;0.80;0.70;;;21.90;43.40;;;;;;5134056;27;20026;-32
2024/02/02 04:26:58;;;;;;;1.08;0.90;;;21.90;43.30;;;;;;5128429;27;20038;-33
2024/02/02 04:29:24;;;;;;;0.93;0.80;;;21.90;43.40;;;;;;5133460;27;20043;-35
2024/02/02 04:31:50;;;;;;;1.10;0.90;;;21.90;43.40;;;;;;5134059;27;20034;-38
2024/02/02 04:34:17;;;;;;;1.27;0.80;;;21.90;43.40;;;;;;5134118;27;20026;-33
2024/02/02 04:36:44;;;;;;;1.23;0.80;;;21.90;43.40;;;;;;5126362;27;20579;-34
2024/02/02 04:39:10;;;;;;;2.28;1.10;;;21.90;43.40;;;;;;5127287;27;20062;-35
2024/02/02 04:41:36;;;;;;;1.10;0.70;;;21.90;43.30;;;;;;5125370;27;20049;-33
2024/02/02 04:44:03;;;;;;;1.30;0.90;;;21.80;43.40;;;;;;5126823;27;20031;-34
2024/02/02 04:46:29;;;;;;;1.60;1.20;;;21.80;43.40;;;;;;5136732;27;20027;-37
2024/02/02 04:48:55;;;;;;;1.67;1.00;;;21.90;43.50;;;;;;5136704;27;20122;-33
2024/02/02 04:51:21;;;;;;;2.85;1.20;;;21.90;43.40;;;;;;5136730;27;20031;-32
2024/02/02 04:53:47;;;;;;;1.95;1.00;;;21.90;43.40;;;;;;5134083;27;20061;-33
2024/02/02 04:56:14;;;;;;;1.52;1.10;;;21.90;43.40;;;;;;5128697;27;20031;-35
2024/02/02 04:58:40;;;;;;;0.80;0.80;;;21.80;43.40;;;;;;5129924;27;20031;-36
2024/02/02 05:01:06;;;;;;;4.03;1.17;;;21.80;43.40;;;;;;5123419;27;20275;-36
2024/02/02 05:03:32;;;;;;;1.60;1.25;;;21.80;43.50;;;;;;5125039;27;20027;-33
2024/02/02 05:05:58;;;;;;;1.70;1.05;;;21.90;43.50;;;;;;5127706;27;20022;-34
2024/02/02 05:08:24;;;;;;;1.30;1.10;;;21.90;43.40;;;;;;5131652;27;20051;-32
2024/02/02 05:10:51;;;;;;;1.50;1.23;;;21.80;43.50;;;;;;5129448;27;20031;-37
2024/02/02 05:13:17;;;;;;;1.67;1.27;;;21.80;43.50;;;;;;5124364;27;20039;-34
2024/02/02 05:15:43;;;;;;;1.48;1.20;;;21.70;43.50;;;;;;5122823;27;20035;-34
2024/02/02 05:18:10;;;;;;;1.50;1.23;;;21.80;43.60;;;;;;5118359;27;20031;-35
2024/02/02 05:20:38;;;;;;;2.38;1.30;;;21.80;43.60;;;;;;5126407;27;20806;-37
2024/02/02 05:23:04;;;;;;;1.52;1.13;;;21.80;43.50;;;;;;5123227;27;20051;-30
2024/02/02 05:25:30;;;;;;;1.70;1.23;;;21.80;43.60;;;;;;5131968;27;20062;-32
2024/02/02 05:27:56;;;;;;;1.60;1.20;;;21.80;43.60;;;;;;5127969;27;20043;-36
2024/02/02 05:30:23;;;;;;;1.25;1.15;;;21.70;43.50;;;;;;5132827;27;20030;-33
2024/02/02 05:32:49;;;;;;;2.30;1.45;;;21.70;43.70;;;;;;5133401;27;20035;-34
2024/02/02 05:35:15;;;;;;;1.70;1.30;;;21.70;43.70;;;;;;5129363;27;20054;-31
2024/02/02 05:37:41;;;;;;;1.63;1.17;;;21.80;43.70;;;;;;5126629;27;20451;-35
2024/02/02 05:40:08;;;;;;;2.03;1.27;;;21.80;43.70;;;;;;5125486;27;20098;-30
2024/02/02 05:42:34;;;;;;;1.75;1.40;;;21.70;43.60;;;;;;5109160;27;20035;-37
2024/02/02 05:45:00;;;;;;;1.70;1.48;;;21.70;43.70;;;;;;5127599;27;20275;-32
2024/02/02 05:47:26;;;;;;;2.63;1.50;;;21.70;43.80;;;;;;5132359;27;20030;-35
2024/02/02 05:49:53;;;;;;;1.52;1.23;;;21.70;43.80;;;;;;5138673;27;20032;-34
2024/02/02 05:52:19;;;;;;;2.10;1.42;;;21.70;43.80;;;;;;5133131;27;20039;-41
2024/02/02 05:54:45;;;;;;;2.33;1.75;;;21.70;43.70;;;;;;5128439;27;20050;-31
2024/02/02 05:57:11;;;;;;;1.90;1.50;;;21.70;43.70;;;;;;5125036;27;20525;-33
2024/02/02 05:59:37;;;;;;;1.55;1.13;;;21.70;43.70;;;;;;5132504;27;20072;-35
2024/02/02 06:02:03;;;;;;;1.40;1.25;;;21.60;43.80;;;;;;5110165;28;20023;-35
2024/02/02 06:04:30;;;;;;;1.92;1.30;;;21.60;43.80;;;;;;5133576;28;20027;-30
2024/02/02 06:06:56;;;;;;;2.50;1.30;;;21.70;43.80;;;;;;5125600;27;20043;-31
2024/02/02 06:09:22;;;;;;;1.70;1.40;;;21.70;43.70;;;;;;5126058;28;20051;-36
2024/02/02 06:11:48;;;;;;;1.60;1.30;;;21.70;43.80;;;;;;5123297;28;20019;-34
2024/02/02 06:14:14;;;;;;;1.42;1.30;;;21.60;43.70;;;;;;5127718;28;20507;-32
2024/02/02 06:16:40;;;;;;;1.63;1.27;;;21.60;43.70;;;;;;5128980;27;20109;-34
2024/02/02 06:19:06;;;;;;;1.67;1.40;;;21.60;43.70;;;;;;5127878;28;20065;-34
2024/02/02 06:21:32;;;;;;;1.65;1.40;;;21.70;43.70;;;;;;5129810;28;20076;-29
2024/02/02 06:23:58;;;;;;;2.67;1.42;;;21.70;43.70;;;;;;5130216;28;20030;-35
2024/02/02 06:26:25;;;;;;;2.88;1.33;;;21.70;43.60;;;;;;5130878;28;20117;-34
2024/02/02 06:28:51;;;;;;;2.00;1.20;;;21.70;43.70;;;;;;5127643;28;20864;-34
2024/02/02 06:31:17;;;;;;;2.25;1.60;;;21.60;43.60;;;;;;5130006;28;20035;-32
2024/02/02 06:33:43;;;;;;;1.80;1.27;;;21.60;43.70;;;;;;5131461;27;20027;-32
2024/02/02 06:36:09;;;;;;;1.98;1.50;;;21.60;43.70;;;;;;5129461;28;20057;-30
2024/02/02 06:38:35;;;;;;;2.47;1.60;;;21.70;43.70;;;;;;5126852;28;20063;-34
2024/02/02 06:41:02;;;;;;;1.92;1.50;;;21.70;43.60;;;;;;5124650;28;20023;-32
2024/02/02 06:43:28;;;;;;;1.75;1.50;;;21.60;43.50;;;;;;5127194;28;20401;-32
2024/02/02 06:45:54;;;;;;;2.45;1.67;;;21.60;43.60;;;;;;5132256;28;20068;-33
2024/02/02 06:48:21;;;;;;;1.77;1.40;;;21.50;43.60;;;;;;5126784;28;20027;-34
2024/02/02 06:50:47;;;;;;;1.60;1.40;;;21.60;43.70;;;;;;5135521;28;20031;-36
2024/02/02 06:53:15;;;;;;;2.80;1.65;;;21.60;43.80;;;;;;5132204;27;20047;-34
2024/02/02 06:55:41;;;;;;;1.92;1.50;;;21.60;43.80;;;;;;5127132;28;20066;-36
2024/02/02 06:58:37;;;;;;;2.03;1.40;;;21.60;43.70;;;;;;5122143;28;20934;-31
2024/02/02 07:01:03;;;;;;;2.10;1.52;;;21.60;43.70;;;;;;5128567;28;20024;-33
2024/02/02 07:03:32;;;;;;;2.27;1.63;;;21.50;43.70;;;;;;5103150;28;20023;-35
2024/02/02 07:05:58;;;;;;;2.30;1.77;;;21.60;43.70;;;;;;5124967;28;20046;-36
2024/02/02 07:08:24;;;;;;;1.80;1.30;;;21.60;43.60;;;;;;5131530;28;20047;-31
2024/02/02 07:10:59;;;;;;;2.17;1.60;;;21.60;43.60;;;;;;5106854;28;20083;-34
2024/02/02 07:13:26;;;;;;;2.58;1.80;;;21.60;43.50;;;;;;5112446;27;20035;-33
2024/02/02 07:15:52;;;;;;;2.00;1.55;;;21.60;43.60;;;;;;5127183;27;20035;-36
2024/02/02 07:18:33;;;;;;;2.72;1.80;;;21.50;44.10;;;;;;5125143;27;20074;-34
2024/02/02 07:21:02;;;;;;;2.40;1.80;;;21.60;43.60;;;;;;5106112;27;20051;-30
2024/02/02 07:23:38;;;;;;;2.35;1.65;;;21.60;43.60;;;;;;5112739;27;20114;-34
2024/02/02 07:26:06;;;;;;;2.35;1.73;;;21.60;43.50;;;;;;5134348;27;20081;-33
2024/02/02 07:28:37;;;;;;;2.30;1.70;;;21.60;43.50;;;;;;5132864;27;20046;-39
2024/02/02 07:31:10;;;;;;;2.47;1.65;;;21.50;43.50;;;;;;5144510;27;20103;-40
2024/02/02 07:33:40;;;;;;;4.00;1.90;;;21.50;43.50;;;;;;5126391;27;20377;-35
2024/02/02 07:36:31;;;;;;;2.63;1.80;;;21.60;43.50;;;;;;5133013;27;20218;-35
2024/02/02 07:38:57;;;;;;;3.80;1.98;;;21.60;43.50;;;;;;5137373;27;20024;-30
2024/02/02 07:41:27;;;;;;;2.10;1.60;;;21.60;43.50;;;;;;5130847;27;20149;-36
2024/02/02 07:43:59;;;;;;;2.42;1.70;;;21.60;43.50;;;;;;5112788;27;20646;-32
2024/02/02 07:46:25;;;;;;;2.35;1.80;;;21.50;43.40;;;;;;5129824;27;20039;-35
2024/02/02 07:48:52;;;;;;;1.98;1.67;;;21.60;43.50;;;;;;5132416;27;20031;-31
2024/02/02 07:51:18;;;;;;;2.47;1.88;;;21.60;43.50;;;;;;5131967;27;20029;-32
2024/02/02 07:53:47;;;;;;;2.13;1.60;;;21.60;43.40;;;;;;5138068;27;20062;-33
2024/02/02 07:56:14;;;;;;;2.17;1.90;;;21.60;43.40;;;;;;5111897;27;20035;-31
2024/02/02 07:58:40;;;;;;;2.40;1.67;;;21.60;43.40;;;;;;5128609;27;20027;-31
2024/02/02 08:01:08;;;;;;;2.28;1.73;;;21.50;43.40;;;;;;5126141;27;20027;-30
2024/02/02 08:03:35;;;;;;;1.98;1.55;;;21.50;43.40;;;;;;5129155;27;20034;-35
2024/02/02 08:06:01;;;;;;;2.80;1.85;;;21.60;43.50;;;;;;5131011;27;20045;-32
2024/02/02 08:08:28;;;;;;;2.28;1.60;;;21.60;43.40;;;;;;5132015;27;20058;-33
2024/02/02 08:10:54;;;;;;;2.95;1.80;;;21.60;43.40;;;;;;5129401;27;20027;-32
2024/02/02 08:13:20;;;;;;;2.55;1.70;;;21.60;43.40;;;;;;5128392;27;20133;-33
2024/02/02 08:15:46;;;;;;;2.08;1.48;;;21.60;43.40;;;;;;5133932;27;20026;-35
2024/02/02 08:18:13;;;;;;;2.35;1.60;;;21.50;43.40;;;;;;5135228;27;20098;-32
2024/02/02 08:20:39;;;;;;;2.30;1.65;;;21.60;43.40;;;;;;5136193;27;20038;-31
2024/02/02 08:23:05;;;;;;;2.28;1.75;;;21.60;43.40;;;;;;5115389;27;20035;-32
2024/02/02 08:25:32;;;;;;;2.05;1.63;;;21.60;43.30;;;;;;5134373;27;20034;-35
2024/02/02 08:27:58;;;;;;;1.83;1.63;;;21.60;43.40;;;;;;5135108;27;20455;-36
2024/02/02 08:30:24;;;;;;;2.00;1.58;;;21.60;43.40;;;;;;5137083;27;20325;-37
2024/02/02 08:32:53;;;;;;;2.17;1.70;;;21.50;43.40;;;;;;5133934;27;20031;-33
2024/02/02 08:35:21;;;;;;;2.15;1.55;;;21.50;43.40;;;;;;5136363;27;20031;-36
2024/02/02 08:37:49;;;;;;;2.38;1.65;;;21.60;43.40;;;;;;5134225;27;20047;-34
2024/02/02 08:40:33;;;;;;;2.10;1.70;;;21.60;43.40;;;;;;5135353;27;20039;-32
2024/02/02 08:43:00;;;;;;;2.55;1.60;;;21.60;43.40;;;;;;5130932;27;20031;-36
2024/02/02 08:46:15;;;;;;;1.80;1.48;;;21.60;43.40;;;;;;5132363;27;20023;-35
2024/02/02 08:48:46;;;;;;;2.28;1.60;;;21.50;43.40;;;;;;5133433;27;20055;-35
2024/02/02 08:51:21;;;;;;;3.03;1.73;;;21.50;43.50;;;;;;5092406;27;20045;-32
2024/02/02 08:53:54;;;;;;;2.13;1.65;;;21.60;43.40;;;;;;5138891;27;20043;-36
2024/02/02 08:56:21;;;;;;;4.05;2.47;;;21.60;43.30;;;;;;5113381;28;20024;-36
2024/02/02 08:58:47;;;;;;;4.80;2.65;;;21.60;43.30;;;;;;5135050;27;20038;-35
2024/02/02 09:01:40;;;;;;;4.70;2.70;;;21.60;43.30;;;;;;5140144;27;20063;-35
2024/02/02 09:04:06;;;;;;;3.13;2.30;;;21.50;43.50;;;;;;5127924;27;20512;-34
2024/02/02 09:06:35;;;;;;;2.72;2.00;;;21.50;43.60;;;;;;5105744;27;20045;-38
2024/02/02 09:09:04;;;;;;;5.57;2.42;;;21.60;43.60;;;;;;5125098;27;20027;-34
2024/02/02 09:11:30;;;;;;;3.03;1.95;;;21.60;43.50;;;;;;5103251;28;20030;-34
2024/02/02 09:14:06;;;;;;;2.55;1.92;;;21.60;43.50;;;;;;5128482;27;20030;-36
2024/02/02 09:16:42;;;;;;;2.70;2.17;;;21.60;43.50;;;;;;5122116;27;20024;-33
2024/02/02 09:19:20;;;;;;;2.97;2.20;;;21.50;43.50;;;;;;5130967;27;20069;-33
2024/02/02 09:21:46;;;;;;;2.45;1.98;;;21.50;43.50;;;;;;5127913;27;20036;-35
2024/02/02 09:24:22;;;;;;;2.55;1.63;;;21.50;43.40;;;;;;5129741;27;20162;-33
2024/02/02 09:26:48;;;;;;;1.95;1.63;;;21.60;43.40;;;;;;5128933;27;20028;-34
2024/02/02 09:29:14;;;;;;;2.15;1.90;;;21.60;43.40;;;;;;5132669;27;20044;-35
2024/02/02 09:31:41;;;;;;;3.35;1.80;;;21.50;43.50;;;;;;5136935;27;20034;-35
2024/02/02 09:34:09;;;;;;;2.77;1.80;;;21.50;43.50;;;;;;5140503;27;20504;-34
2024/02/02 09:36:36;;;;;;;2.10;1.60;;;21.50;43.40;;;;;;5132152;27;20031;-33
2024/02/02 09:39:33;;;;;;;2.35;2.03;;;21.50;43.50;;;;;;5129884;27;20028;-34
2024/02/02 09:42:18;;;;;;;1.88;1.60;;;21.50;43.50;;;;;;5117930;28;20031;-35
2024/02/02 09:44:52;;;;;;;2.20;1.75;;;21.60;43.40;;;;;;5137570;27;20052;-32
2024/02/02 09:47:36;;;;;;;2.28;1.92;;;21.50;43.50;;;;;;5145194;27;20036;-33
2024/02/02 09:50:31;;;;;;;2.30;1.63;;;21.50;43.50;;;;;;5133335;27;20027;-33
2024/02/02 09:53:27;;;;;;;2.78;1.70;;;21.50;43.50;;;;;;5115310;28;20055;-35
2024/02/02 09:56:32;;;;;;;2.13;1.83;;;21.50;43.50;;;;;;5098825;27;20027;-37
2024/02/02 09:59:08;;;;;;;2.10;1.85;;;21.50;43.40;;;;;;5121790;28;20130;-33
2024/02/02 10:01:49;;;;;;;2.92;1.80;;;21.50;43.50;;;;;;5131191;28;20055;-30
2024/02/02 10:04:49;;;;;;;2.10;1.30;;;21.50;43.50;;;;;;5113696;28;20031;-30
2024/02/02 10:07:30;;;;;;;2.10;1.70;;;21.50;43.50;;;;;;5119532;28;20067;-31
2024/02/02 10:10:06;;;;;;;2.35;2.03;;;21.50;43.50;;;;;;5128578;28;20038;-35
2024/02/02 10:12:57;;;;;;;2.17;1.75;;;21.50;43.50;;;;;;5128594;27;20828;-31
2024/02/02 10:15:42;;;;;;;2.78;2.08;;;21.50;43.50;;;;;;5130647;28;20046;-33
2024/02/02 10:18:27;;;;;;;2.60;1.70;;;21.50;43.50;;;;;;5116681;27;20088;-36
2024/02/02 10:20:56;;;;;;;2.13;1.70;;;21.40;43.50;;;;;;5132513;27;20052;-33
2024/02/02 10:23:38;;;;;;;2.55;1.77;;;21.50;43.50;;;;;;5127024;28;20031;-31
2024/02/02 10:26:22;;;;;;;3.65;1.55;;;21.50;43.50;;;;;;5130719;27;20035;-37
2024/02/02 10:28:55;;;;;;;2.08;1.63;;;21.50;43.50;;;;;;5130874;27;20039;-32
2024/02/02 10:31:36;;;;;;;2.28;1.50;;;21.50;43.50;;;;;;5113338;28;20019;-35
2024/02/02 10:34:11;;;;;;;1.80;1.55;;;21.40;43.50;;;;;;5113116;27;20031;-33
2024/02/02 10:36:52;;;;;;;3.17;1.85;;;21.40;43.50;;;;;;5112088;27;20023;-37
2024/02/02 10:39:51;;;;;;;2.08;1.65;;;21.50;43.50;;;;;;5132443;27;20046;-33
2024/02/02 10:42:51;;;;;;;2.22;1.52;;;21.50;43.50;;;;;;5132483;27;20039;-34
2024/02/02 10:45:32;;;;;;;1.70;1.52;;;21.50;43.50;;;;;;5128677;27;20031;-32
2024/02/02 10:48:16;;;;;;;1.90;1.60;;;21.50;43.50;;;;;;5107665;27;20035;-35
2024/02/02 10:51:05;;;;;;;2.22;1.67;;;21.40;43.70;;;;;;5132688;27;20163;-34
2024/02/02 10:53:57;;;;;;;2.20;1.58;;;21.50;43.70;;;;;;5134802;27;20055;-36
2024/02/02 10:56:53;;;;;;;2.50;1.83;;;21.50;43.60;;;;;;5121545;27;20034;-32
2024/02/02 10:59:48;;;;;;;3.20;1.70;;;21.50;43.60;;;;;;5115940;27;20023;-34
2024/02/02 11:02:36;;;;;;;2.10;1.50;;;21.50;43.60;;;;;;5136419;27;20041;-32
2024/02/02 11:05:18;;;;;;;1.95;1.60;;;21.40;43.50;;;;;;5115243;27;20027;-35
2024/02/02 11:08:02;;;;;;;2.25;1.75;;;21.50;43.60;;;;;;5138974;27;20034;-33
2024/02/02 11:10:34;;;;;;;2.28;1.67;;;21.50;43.50;;;;;;5112807;27;20049;-34
2024/02/02 11:13:28;;;;;;;2.13;1.63;;;21.50;43.40;;;;;;5114081;27;20035;-32
2024/02/02 11:16:08;;;;;;;2.15;1.50;;;21.50;43.50;;;;;;5109590;27;20041;-33
2024/02/02 11:18:57;;;;;;;2.13;1.70;;;21.50;43.60;;;;;;5133492;27;20083;-31
2024/02/02 11:21:42;;;;;;;2.63;1.75;;;21.50;43.70;;;;;;5122341;27;20027;-32
2024/02/02 11:24:23;;;;;;;3.75;1.55;;;21.50;43.60;;;;;;5135237;27;20038;-31
2024/02/02 11:26:58;;;;;;;2.33;1.58;;;21.50;43.60;;;;;;5131374;27;20090;-32
2024/02/02 11:29:39;;;;;;;2.05;1.55;;;21.50;43.50;;;;;;5114988;27;20049;-35
2024/02/02 11:32:27;;;;;;;2.00;1.70;;;21.50;43.50;;;;;;5114036;27;20027;-33
2024/02/02 11:34:59;;;;;;;2.17;1.50;;;21.50;43.60;;;;;;5132960;27;20066;-32
2024/02/02 11:37:32;;;;;;;3.80;1.60;;;21.50;43.60;;;;;;5113318;27;20055;-34
2024/02/02 11:40:04;;;;;;;2.33;1.65;;;21.50;43.50;;;;;;5131814;27;20035;-38
2024/02/02 11:42:31;;;;;;;2.38;1.60;;;21.50;43.50;;;;;;5134625;27;20092;-35
2024/02/02 11:44:57;;;;;;;2.13;1.80;;;21.50;43.50;;;;;;5130548;27;20795;-31
2024/02/02 11:47:24;;;;;;;1.85;1.50;;;21.50;43.50;;;;;;5125662;27;20051;-33
2024/02/02 11:50:06;;;;;;;1.80;1.52;;;21.50;43.50;;;;;;5129499;27;20031;-32
2024/02/02 11:52:42;;;;;;;2.47;1.67;;;21.50;43.60;;;;;;5132528;27;20102;-36
2024/02/02 11:55:16;;;;;;;2.08;1.88;;;21.50;43.50;;;;;;5117307;27;20023;-35
2024/02/02 11:57:53;;;;;;;1.60;1.35;;;21.50;43.50;;;;;;5115989;27;20028;-35
2024/02/02 12:00:31;;;;;;;2.70;1.63;;;21.50;43.50;;;;;;5135381;27;20038;-35
2024/02/02 12:03:21;;;;;;;2.17;1.52;;;21.50;43.50;;;;;;5131897;27;20046;-33
2024/02/02 12:06:14;;;;;;;3.38;1.50;;;21.50;43.50;;;;;;5113067;27;20035;-32
2024/02/02 12:09:11;;;;;;;1.92;1.70;;;21.50;43.50;;;;;;5109782;27;20211;-35
2024/02/02 12:11:38;;;;;;;1.88;1.65;;;21.50;43.50;;;;;;5109484;27;20665;-33
2024/02/02 12:14:25;;;;;;;2.47;1.73;;;21.50;43.40;;;;;;5097877;27;20035;-32
2024/02/02 12:16:52;;;;;;;2.08;1.67;;;21.60;43.50;;;;;;5136224;27;20043;-31
2024/02/02 12:19:18;;;;;;;1.98;1.60;;;21.50;43.50;;;;;;5137002;27;20023;-33
2024/02/02 12:21:45;;;;;;;2.47;1.55;;;21.50;43.50;;;;;;5142955;27;20685;-34
2024/02/02 12:24:11;;;;;;;1.95;1.50;;;21.50;43.50;;;;;;5114802;27;20038;-36
2024/02/02 12:26:38;;;;;;;2.20;1.65;;;21.50;43.40;;;;;;5131167;27;20035;-33
2024/02/02 12:29:04;;;;;;;3.22;1.60;;;21.50;43.40;;;;;;5133205;27;20039;-33
2024/02/02 12:31:30;;;;;;;2.67;1.70;;;21.50;43.50;;;;;;5132824;27;20031;-33
2024/02/02 12:33:57;;;;;;;1.70;1.33;;;21.50;43.50;;;;;;5132868;27;20812;-33
2024/02/02 12:36:23;;;;;;;1.90;1.50;;;21.60;43.30;;;;;;5132363;27;20023;-36
2024/02/02 12:38:52;;;;;;;1.73;1.25;;;21.70;43.20;;;;;;5135646;27;20105;-36
2024/02/02 12:41:19;;;;;;;1.88;1.40;;;21.70;43.10;;;;;;5101114;27;20035;-34
2024/02/02 12:43:48;;;;;;;2.03;1.40;;;21.60;43.00;;;;;;5134506;27;20065;-35
2024/02/02 12:46:14;;;;;;;2.00;1.40;;;21.50;43.10;;;;;;5129748;27;20046;-38
2024/02/02 12:48:40;;;;;;;3.15;1.60;;;21.50;43.20;;;;;;5127646;27;20050;-35
2024/02/02 12:51:07;;;;;;;1.73;1.20;;;21.60;43.20;;;;;;5128502;27;20019;-37
2024/02/02 12:53:33;;;;;;;2.00;1.67;;;21.70;43.10;;;;;;5129371;27;20182;-34
2024/02/02 12:55:59;;;;;;;1.73;1.50;;;21.70;43.00;;;;;;5133713;27;20027;-32
2024/02/02 12:58:25;;;;;;;1.55;1.38;;;21.60;43.00;;;;;;5126772;27;20774;-31
2024/02/02 13:00:51;;;;;;;2.28;1.40;;;21.50;43.20;;;;;;5130146;27;20114;-33
2024/02/02 13:03:17;;;;;;;1.55;1.38;;;21.50;43.20;;;;;;5130741;27;20039;-32